createdAt,value
2018-12-01T00:00:46.224Z,8.13
2018-12-01T00:01:46.215Z,8.13
2018-12-01T00:02:46.450Z,8.08
2018-12-01T00:03:45.969Z,8.05
2018-12-01T00:04:46.201Z,8.03
2018-12-01T00:05:46.452Z,8.1
2018-12-01T00:06:46.202Z,8.13
2018-12-01T00:07:46.438Z,8.03
2018-12-01T00:08:46.177Z,8.06
2018-12-01T00:09:46.172Z,8.05
2018-12-01T00:10:46.164Z,8.06
2018-12-01T00:11:46.397Z,8.03
2018-12-01T00:12:46.415Z,8.06
2018-12-01T00:13:46.126Z,8.06
2018-12-01T00:14:46.377Z,7.98
2018-12-01T00:15:46.124Z,8.01
2018-12-01T00:16:46.116Z,8.06
2018-12-01T00:17:46.109Z,8.06
2018-12-01T00:18:46.138Z,7.95
2018-12-01T00:19:46.098Z,8.01
2018-12-01T00:20:46.097Z,8.01
2018-12-01T00:21:45.829Z,7.95
2018-12-01T00:22:46.073Z,7.97
2018-12-01T00:23:49.168Z,7.88
2018-12-01T00:24:46.317Z,7.95
2018-12-01T00:25:46.071Z,7.94
2018-12-01T00:26:46.049Z,7.83
2018-12-01T00:27:46.050Z,7.73
2018-12-01T00:28:46.284Z,7.79
2018-12-01T00:29:46.030Z,7.82
2018-12-01T00:30:46.026Z,7.76
2018-12-01T00:31:46.268Z,7.57
2018-12-01T00:32:46.263Z,7.6
2018-12-01T00:33:46.250Z,7.63
2018-12-01T00:34:45.999Z,7.54
2018-12-01T00:35:45.745Z,7.53
2018-12-01T00:36:46.223Z,7.48
2018-12-01T00:37:46.009Z,7.39
2018-12-01T00:38:45.981Z,7.39
2018-12-01T00:39:45.963Z,7.36
2018-12-01T00:40:45.967Z,7.32
2018-12-01T00:41:45.765Z,7.21
2018-12-01T00:42:45.958Z,7.32
2018-12-01T00:43:46.188Z,7.28
2018-12-01T00:44:45.939Z,7.35
2018-12-01T00:45:45.931Z,7.35
2018-12-01T00:46:45.932Z,7.32
2018-12-01T00:47:45.653Z,7.29
2018-12-01T00:48:45.896Z,7.42
2018-12-01T00:49:46.441Z,7.35
2018-12-01T00:50:45.890Z,7.38
2018-12-01T00:51:45.874Z,7.28
2018-12-01T00:52:45.874Z,7.29
2018-12-01T00:53:46.114Z,7.25
2018-12-01T00:54:45.867Z,7.23
2018-12-01T00:55:45.851Z,7.13
2018-12-01T00:56:45.845Z,7.13
2018-12-01T00:57:45.893Z,7.13
2018-12-01T00:58:45.836Z,7.05
2018-12-01T00:59:45.826Z,7.13
2018-12-01T01:00:45.834Z,6.99
2018-12-01T01:01:45.805Z,7.02
2018-12-01T01:02:45.799Z,6.99
2018-12-01T01:03:45.785Z,7
2018-12-01T01:04:46.046Z,7.03
2018-12-01T01:05:45.787Z,6.99
2018-12-01T01:06:46.013Z,7.03
2018-12-01T01:07:45.768Z,7.06
2018-12-01T01:08:45.786Z,7.03
2018-12-01T01:09:45.757Z,6.96
2018-12-01T01:10:45.525Z,6.99
2018-12-01T01:11:45.730Z,6.95
2018-12-01T01:12:45.725Z,6.89
2018-12-01T01:13:45.472Z,6.92
2018-12-01T01:14:45.948Z,6.96
2018-12-01T01:15:45.717Z,7.02
2018-12-01T01:16:45.948Z,6.88
2018-12-01T01:17:45.702Z,7
2018-12-01T01:18:45.677Z,6.99
2018-12-01T01:19:45.973Z,7.02
2018-12-01T01:20:45.952Z,7.02
2018-12-01T01:21:45.416Z,7.07
2018-12-01T01:22:45.898Z,7.06
2018-12-01T01:23:45.901Z,7.06
2018-12-01T01:24:45.885Z,7.05
2018-12-01T01:25:45.900Z,7.18
2018-12-01T01:26:45.615Z,7.18
2018-12-01T01:27:45.609Z,7.15
2018-12-01T01:28:45.611Z,7.14
2018-12-01T01:29:45.594Z,7.23
2018-12-01T01:30:45.847Z,7.24
2018-12-01T01:31:45.645Z,7.25
2018-12-01T01:32:45.664Z,7.24
2018-12-01T01:33:45.581Z,7.31
2018-12-01T01:34:45.813Z,7.38
2018-12-01T01:35:45.800Z,7.35
2018-12-01T01:36:45.796Z,7.4
2018-12-01T01:37:45.539Z,7.39
2018-12-01T01:38:45.792Z,7.39
2018-12-01T01:39:45.277Z,7.36
2018-12-01T01:40:45.520Z,7.43
2018-12-01T01:41:45.763Z,7.47
2018-12-01T01:42:45.750Z,7.51
2018-12-01T01:43:46.628Z,7.53
2018-12-01T01:44:45.501Z,7.53
2018-12-01T01:45:45.498Z,7.5
2018-12-01T01:46:45.494Z,7.58
2018-12-01T01:47:45.492Z,7.54
2018-12-01T01:48:45.466Z,7.56
2018-12-01T01:49:45.725Z,7.51
2018-12-01T01:50:45.450Z,7.45
2018-12-01T01:51:45.726Z,7.39
2018-12-01T01:52:45.695Z,7.39
2018-12-01T01:53:45.439Z,7.42
2018-12-01T01:54:45.690Z,7.5
2018-12-01T01:55:45.667Z,7.48
2018-12-01T01:56:45.683Z,7.51
2018-12-01T01:57:45.417Z,7.43
2018-12-01T01:58:45.401Z,7.45
2018-12-01T01:59:45.655Z,7.56
2018-12-01T02:00:45.404Z,7.51
2018-12-01T02:01:45.625Z,7.54
2018-12-01T02:02:45.130Z,7.5
2018-12-01T02:03:45.601Z,7.5
2018-12-01T02:04:45.368Z,7.56
2018-12-01T02:05:45.603Z,7.51
2018-12-01T02:06:45.577Z,7.63
2018-12-01T02:07:45.568Z,7.54
2018-12-01T02:08:45.595Z,7.6
2018-12-01T02:09:45.327Z,7.57
2018-12-01T02:10:45.343Z,7.56
2018-12-01T02:11:45.567Z,7.54
2018-12-01T02:12:45.559Z,7.47
2018-12-01T02:13:45.296Z,7.47
2018-12-01T02:14:45.579Z,7.56
2018-12-01T02:15:45.534Z,7.53
2018-12-01T02:16:45.284Z,7.51
2018-12-01T02:17:45.264Z,7.53
2018-12-01T02:18:45.257Z,7.53
2018-12-01T02:19:45.511Z,7.53
2018-12-01T02:20:45.523Z,7.47
2018-12-01T02:21:44.998Z,7.58
2018-12-01T02:22:45.495Z,7.57
2018-12-01T02:23:45.225Z,7.58
2018-12-01T02:24:45.219Z,7.58
2018-12-01T02:25:45.217Z,7.51
2018-12-01T02:26:44.955Z,7.48
2018-12-01T02:27:45.455Z,7.61
2018-12-01T02:28:45.448Z,7.61
2018-12-01T02:29:45.448Z,7.61
2018-12-01T02:30:45.460Z,7.63
2018-12-01T02:31:45.190Z,7.6
2018-12-01T02:32:45.188Z,7.67
2018-12-01T02:33:45.158Z,7.56
2018-12-01T02:34:45.406Z,7.54
2018-12-01T02:35:45.154Z,7.58
2018-12-01T02:36:45.395Z,7.47
2018-12-01T02:37:45.413Z,7.58
2018-12-01T02:38:45.170Z,7.45
2018-12-01T02:39:45.151Z,7.43
2018-12-01T02:40:44.874Z,7.47
2018-12-01T02:41:45.108Z,7.51
2018-12-01T02:42:45.350Z,7.48
2018-12-01T02:43:45.104Z,7.48
2018-12-01T02:44:45.330Z,7.5
2018-12-01T02:45:45.076Z,7.48
2018-12-01T02:46:45.328Z,7.57
2018-12-01T02:47:45.401Z,7.6
2018-12-01T02:48:45.319Z,7.54
2018-12-01T02:49:45.056Z,7.63
2018-12-01T02:50:45.853Z,7.69
2018-12-01T02:51:45.030Z,7.56
2018-12-01T02:52:44.777Z,7.6
2018-12-01T02:53:45.041Z,7.61
2018-12-01T02:54:45.253Z,7.6
2018-12-01T02:55:45.257Z,7.57
2018-12-01T02:56:45.002Z,7.58
2018-12-01T02:57:45.246Z,7.58
2018-12-01T02:58:45.253Z,7.58
2018-12-01T02:59:44.983Z,7.58
2018-12-01T03:00:44.997Z,7.61
2018-12-01T03:01:45.213Z,7.57
2018-12-01T03:02:45.214Z,7.56
2018-12-01T03:03:44.960Z,7.58
2018-12-01T03:04:44.956Z,7.57
2018-12-01T03:05:45.193Z,7.58
2018-12-01T03:06:45.181Z,7.72
2018-12-01T03:07:44.928Z,7.54
2018-12-01T03:08:44.676Z,7.58
2018-12-01T03:09:44.923Z,7.56
2018-12-01T03:10:44.909Z,7.63
2018-12-01T03:11:45.164Z,7.56
2018-12-01T03:12:45.154Z,7.6
2018-12-01T03:13:44.900Z,7.63
2018-12-01T03:14:45.134Z,7.58
2018-12-01T03:15:45.145Z,7.5
2018-12-01T03:16:45.115Z,7.5
2018-12-01T03:17:45.108Z,7.48
2018-12-01T03:18:45.214Z,7.5
2018-12-01T03:19:44.850Z,7.45
2018-12-01T03:20:45.654Z,7.47
2018-12-01T03:21:45.098Z,7.4
2018-12-01T03:22:45.088Z,7.31
2018-12-01T03:23:45.061Z,7.25
2018-12-01T03:24:45.073Z,7.29
2018-12-01T03:25:44.824Z,7.23
2018-12-01T03:26:44.802Z,7.15
2018-12-01T03:27:44.545Z,7.15
2018-12-01T03:28:44.786Z,7.15
2018-12-01T03:29:44.532Z,7.07
2018-12-01T03:30:44.553Z,7.13
2018-12-01T03:31:45.050Z,7.07
2018-12-01T03:32:44.762Z,7.07
2018-12-01T03:33:44.759Z,7
2018-12-01T03:34:44.750Z,7.05
2018-12-01T03:35:44.996Z,7.17
2018-12-01T03:36:44.994Z,7.18
2018-12-01T03:37:44.723Z,7.18
2018-12-01T03:38:45.020Z,7.15
2018-12-01T03:39:44.967Z,7.15
2018-12-01T03:40:44.913Z,7.14
2018-12-01T03:41:45.174Z,7.23
2018-12-01T03:42:44.693Z,7.29
2018-12-01T03:43:44.926Z,7.21
2018-12-01T03:44:44.933Z,7.32
2018-12-01T03:45:44.926Z,7.24
2018-12-01T03:46:44.745Z,7.24
2018-12-01T03:47:44.396Z,7.29
2018-12-01T03:48:44.900Z,7.33
2018-12-01T03:49:44.626Z,7.38
2018-12-01T03:50:44.950Z,7.35
2018-12-01T03:51:44.626Z,7.35
2018-12-01T03:52:44.610Z,7.32
2018-12-01T03:53:44.616Z,7.36
2018-12-01T03:54:44.624Z,7.4
2018-12-01T03:55:44.608Z,7.45
2018-12-01T03:56:44.593Z,7.43
2018-12-01T03:57:44.592Z,7.4
2018-12-01T03:58:44.320Z,7.5
2018-12-01T03:59:44.830Z,7.53
2018-12-01T04:00:44.820Z,7.53
2018-12-01T04:01:44.797Z,7.48
2018-12-01T04:02:44.569Z,7.51
2018-12-01T04:03:44.283Z,7.43
2018-12-01T04:04:44.784Z,7.5
2018-12-01T04:05:44.758Z,7.54
2018-12-01T04:06:44.276Z,7.56
2018-12-01T04:07:44.262Z,7.53
2018-12-01T04:08:44.507Z,7.5
2018-12-01T04:09:44.494Z,7.43
2018-12-01T04:10:44.732Z,7.53
2018-12-01T04:11:44.470Z,7.56
2018-12-01T04:12:44.715Z,7.57
2018-12-01T04:13:44.210Z,7.56
2018-12-01T04:14:44.440Z,7.56
2018-12-01T04:15:44.701Z,7.53
2018-12-01T04:16:44.705Z,7.51
2018-12-01T04:17:44.437Z,7.43
2018-12-01T04:18:44.174Z,7.57
2018-12-01T04:19:44.658Z,7.45
2018-12-01T04:20:44.399Z,7.57
2018-12-01T04:21:44.896Z,7.54
2018-12-01T04:22:44.396Z,7.5
2018-12-01T04:23:44.150Z,7.47
2018-12-01T04:24:44.370Z,7.5
2018-12-01T04:25:44.617Z,7.5
2018-12-01T04:26:44.619Z,7.53
2018-12-01T04:27:44.366Z,7.54
2018-12-01T04:28:44.588Z,7.53
2018-12-01T04:29:44.363Z,7.54
2018-12-01T04:30:44.596Z,7.54
2018-12-01T04:31:44.569Z,7.58
2018-12-01T04:32:44.370Z,7.6
2018-12-01T04:33:44.318Z,7.58
2018-12-01T04:34:44.302Z,7.69
2018-12-01T04:35:44.549Z,7.75
2018-12-01T04:36:44.043Z,7.73
2018-12-01T04:37:44.529Z,7.7
2018-12-01T04:38:44.273Z,7.8
2018-12-01T04:39:44.017Z,7.82
2018-12-01T04:40:44.277Z,7.67
2018-12-01T04:41:44.499Z,7.76
2018-12-01T04:42:44.011Z,7.82
2018-12-01T04:43:44.001Z,7.79
2018-12-01T04:44:44.238Z,7.69
2018-12-01T04:45:44.230Z,7.8
2018-12-01T04:46:44.476Z,7.79
2018-12-01T04:47:44.212Z,7.73
2018-12-01T04:48:44.208Z,7.73
2018-12-01T04:49:44.206Z,7.79
2018-12-01T04:50:44.456Z,7.73
2018-12-01T04:51:45.790Z,7.76
2018-12-01T04:52:44.165Z,7.73
2018-12-01T04:53:43.917Z,7.7
2018-12-01T04:54:44.163Z,7.69
2018-12-01T04:55:44.393Z,7.66
2018-12-01T04:56:44.402Z,7.6
2018-12-01T04:57:44.394Z,7.67
2018-12-01T04:58:43.882Z,7.6
2018-12-01T04:59:44.124Z,7.51
2018-12-01T05:00:44.119Z,7.57
2018-12-01T05:01:44.115Z,7.6
2018-12-01T05:02:44.357Z,7.48
2018-12-01T05:03:44.086Z,7.54
2018-12-01T05:04:43.836Z,7.61
2018-12-01T05:05:44.083Z,7.58
2018-12-01T05:06:43.827Z,7.57
2018-12-01T05:07:44.313Z,7.6
2018-12-01T05:08:43.800Z,7.7
2018-12-01T05:09:44.333Z,7.73
2018-12-01T05:10:43.826Z,7.56
2018-12-01T05:11:44.026Z,7.6
2018-12-01T05:12:43.786Z,7.6
2018-12-01T05:13:44.271Z,7.57
2018-12-01T05:14:43.789Z,7.54
2018-12-01T05:15:44.270Z,7.58
2018-12-01T05:16:44.242Z,7.58
2018-12-01T05:17:44.242Z,7.57
2018-12-01T05:18:44.221Z,7.47
2018-12-01T05:19:44.228Z,7.51
2018-12-01T05:20:43.977Z,7.43
2018-12-01T05:21:44.222Z,7.32
2018-12-01T05:22:43.863Z,7.39
2018-12-01T05:23:43.946Z,7.32
2018-12-01T05:24:43.963Z,7.33
2018-12-01T05:25:43.934Z,7.29
2018-12-01T05:26:43.951Z,7.25
2018-12-01T05:27:44.171Z,7.18
2018-12-01T05:28:43.663Z,7.13
2018-12-01T05:29:43.769Z,7.15
2018-12-01T05:30:43.903Z,7
2018-12-01T05:31:43.663Z,7.02
2018-12-01T05:32:44.150Z,7.02
2018-12-01T05:33:44.115Z,6.99
2018-12-01T05:34:43.870Z,6.97
2018-12-01T05:35:44.117Z,6.92
2018-12-01T05:36:44.102Z,6.88
2018-12-01T05:37:43.609Z,6.95
2018-12-01T05:38:44.110Z,6.92
2018-12-01T05:39:44.132Z,6.81
2018-12-01T05:40:44.063Z,6.78
2018-12-01T05:41:44.062Z,6.87
2018-12-01T05:42:44.073Z,6.77
2018-12-01T05:43:43.826Z,6.74
2018-12-01T05:44:44.052Z,6.69
2018-12-01T05:45:44.044Z,6.67
2018-12-01T05:46:44.021Z,6.69
2018-12-01T05:47:44.021Z,6.74
2018-12-01T05:48:43.803Z,6.63
2018-12-01T05:49:43.756Z,6.62
2018-12-01T05:50:43.794Z,6.57
2018-12-01T05:51:43.769Z,6.57
2018-12-01T05:52:43.528Z,6.6
2018-12-01T05:53:44.011Z,6.67
2018-12-01T05:54:43.466Z,6.62
2018-12-01T05:55:43.966Z,6.56
2018-12-01T05:56:43.470Z,6.44
2018-12-01T05:57:43.695Z,6.44
2018-12-01T05:58:43.678Z,6.38
2018-12-01T05:59:43.959Z,6.38
2018-12-01T06:00:43.709Z,6.46
2018-12-01T06:01:43.926Z,6.42
2018-12-01T06:02:43.675Z,6.41
2018-12-01T06:03:43.642Z,6.3
2018-12-01T06:04:43.397Z,6.36
2018-12-01T06:05:43.630Z,6.24
2018-12-01T06:06:43.627Z,6.27
2018-12-01T06:07:43.860Z,6.24
2018-12-01T06:08:43.370Z,6.19
2018-12-01T06:09:43.855Z,6.12
2018-12-01T06:10:43.581Z,6.12
2018-12-01T06:11:43.827Z,6.19
2018-12-01T06:12:43.828Z,6.19
2018-12-01T06:13:43.561Z,6.14
2018-12-01T06:14:43.803Z,6.14
2018-12-01T06:15:43.798Z,6.11
2018-12-01T06:16:43.811Z,6.08
2018-12-01T06:17:43.797Z,6.2
2018-12-01T06:18:43.329Z,6.24
2018-12-01T06:19:43.774Z,6.16
2018-12-01T06:20:43.287Z,6.14
2018-12-01T06:21:43.747Z,6.08
2018-12-01T06:22:43.481Z,6.05
2018-12-01T06:23:43.723Z,6.01
2018-12-01T06:24:43.470Z,6.05
2018-12-01T06:25:43.751Z,6.04
2018-12-01T06:26:43.474Z,6.07
2018-12-01T06:27:43.718Z,5.97
2018-12-01T06:28:43.698Z,5.93
2018-12-01T06:29:43.697Z,5.91
2018-12-01T06:30:43.679Z,5.86
2018-12-01T06:31:43.417Z,5.73
2018-12-01T06:32:43.406Z,5.73
2018-12-01T06:33:43.647Z,5.68
2018-12-01T06:34:43.389Z,5.71
2018-12-01T06:35:43.630Z,5.65
2018-12-01T06:36:43.385Z,5.64
2018-12-01T06:37:43.367Z,5.66
2018-12-01T06:38:43.370Z,5.62
2018-12-01T06:39:43.364Z,5.64
2018-12-01T06:40:43.592Z,5.64
2018-12-01T06:41:43.350Z,5.61
2018-12-01T06:42:43.620Z,5.64
2018-12-01T06:43:43.576Z,5.64
2018-12-01T06:44:43.304Z,5.61
2018-12-01T06:45:43.325Z,5.64
2018-12-01T06:46:43.288Z,5.62
2018-12-01T06:47:43.321Z,5.65
2018-12-01T06:48:43.524Z,5.61
2018-12-01T06:49:43.274Z,5.59
2018-12-01T06:50:43.016Z,5.59
2018-12-01T06:51:43.498Z,5.57
2018-12-01T06:52:44.535Z,5.54
2018-12-01T06:53:43.018Z,5.59
2018-12-01T06:54:43.214Z,5.62
2018-12-01T06:55:43.470Z,5.68
2018-12-01T06:56:43.213Z,5.82
2018-12-01T06:57:43.198Z,5.83
2018-12-01T06:58:43.185Z,5.98
2018-12-01T06:59:43.434Z,6.04
2018-12-01T07:00:43.174Z,6.14
2018-12-01T07:01:43.416Z,6.28
2018-12-01T07:02:44.223Z,6.3
2018-12-01T07:03:43.184Z,6.45
2018-12-01T07:04:42.881Z,6.33
2018-12-01T07:05:43.386Z,6.35
2018-12-01T07:06:42.880Z,6.46
2018-12-01T07:07:42.887Z,6.39
2018-12-01T07:08:43.106Z,6.39
2018-12-01T07:09:43.343Z,6.52
2018-12-01T07:10:42.852Z,6.42
2018-12-01T07:11:43.320Z,6.44
2018-12-01T07:12:43.096Z,6.46
2018-12-01T07:13:43.312Z,6.46
2018-12-01T07:14:43.003Z,6.42
2018-12-01T07:15:43.037Z,6.45
2018-12-01T07:16:43.354Z,6.48
2018-12-01T07:17:43.283Z,6.38
2018-12-01T07:18:43.018Z,6.44
2018-12-01T07:19:42.874Z,6.42
2018-12-01T07:20:43.004Z,6.41
2018-12-01T07:21:43.239Z,6.51
2018-12-01T07:22:43.007Z,6.51
2018-12-01T07:23:43.232Z,6.63
2018-12-01T07:24:43.063Z,6.62
2018-12-01T07:25:42.729Z,6.6
2018-12-01T07:26:42.953Z,6.66
2018-12-01T07:27:42.804Z,6.67
2018-12-01T07:28:42.932Z,6.74
2018-12-01T07:29:42.928Z,6.74
2018-12-01T07:30:42.916Z,6.81
2018-12-01T07:31:42.917Z,6.74
2018-12-01T07:32:43.164Z,6.74
2018-12-01T07:33:42.655Z,6.81
2018-12-01T07:34:43.133Z,6.85
2018-12-01T07:35:42.635Z,6.77
2018-12-01T07:36:42.896Z,6.77
2018-12-01T07:37:43.133Z,6.74
2018-12-01T07:38:43.122Z,6.89
2018-12-01T07:39:42.862Z,6.77
2018-12-01T07:40:43.103Z,6.85
2018-12-01T07:41:43.085Z,6.89
2018-12-01T07:42:42.831Z,6.85
2018-12-01T07:43:43.249Z,6.89
2018-12-01T07:44:42.808Z,6.92
2018-12-01T07:45:43.042Z,6.85
2018-12-01T07:46:42.793Z,6.88
2018-12-01T07:47:43.053Z,6.89
2018-12-01T07:48:42.794Z,6.84
2018-12-01T07:49:43.011Z,7.03
2018-12-01T07:50:42.515Z,7.02
2018-12-01T07:51:42.740Z,7.02
2018-12-01T07:52:42.494Z,7.07
2018-12-01T07:53:42.729Z,7.11
2018-12-01T07:54:42.723Z,7.11
2018-12-01T07:55:42.468Z,7.13
2018-12-01T07:56:42.750Z,7.15
2018-12-01T07:57:43.048Z,7.14
2018-12-01T07:58:42.694Z,7.18
2018-12-01T07:59:42.444Z,7.24
2018-12-01T08:00:42.932Z,7.28
2018-12-01T08:01:42.676Z,7.29
2018-12-01T08:02:42.662Z,7.35
2018-12-01T08:03:42.659Z,7.33
2018-12-01T08:04:42.895Z,7.39
2018-12-01T08:05:42.387Z,7.4
2018-12-01T08:06:42.631Z,7.43
2018-12-01T08:07:42.624Z,7.43
2018-12-01T08:08:42.629Z,7.51
2018-12-01T08:09:42.626Z,7.57
2018-12-01T08:10:42.592Z,7.45
2018-12-01T08:11:42.630Z,7.5
2018-12-01T08:12:42.595Z,7.54
2018-12-01T08:13:42.826Z,7.6
2018-12-01T08:14:42.840Z,7.6
2018-12-01T08:15:42.812Z,7.66
2018-12-01T08:16:42.552Z,7.58
2018-12-01T08:17:42.567Z,7.61
2018-12-01T08:18:42.536Z,7.56
2018-12-01T08:19:42.829Z,7.56
2018-12-01T08:20:42.535Z,7.56
2018-12-01T08:21:42.527Z,7.58
2018-12-01T08:22:42.524Z,7.6
2018-12-01T08:23:42.515Z,7.72
2018-12-01T08:24:42.499Z,7.72
2018-12-01T08:25:42.805Z,7.73
2018-12-01T08:26:42.511Z,7.73
2018-12-01T08:27:42.742Z,7.75
2018-12-01T08:28:42.718Z,7.83
2018-12-01T08:29:42.708Z,7.83
2018-12-01T08:30:42.449Z,7.8
2018-12-01T08:31:42.713Z,7.94
2018-12-01T08:32:42.687Z,7.91
2018-12-01T08:33:42.435Z,8
2018-12-01T08:34:42.436Z,8.03
2018-12-01T08:35:42.674Z,7.93
2018-12-01T08:36:42.453Z,8.03
2018-12-01T08:37:42.423Z,8.05
2018-12-01T08:38:42.647Z,8.1
2018-12-01T08:39:42.386Z,8.12
2018-12-01T08:40:42.643Z,8.19
2018-12-01T08:41:42.383Z,8.3
2018-12-01T08:42:42.616Z,8.34
2018-12-01T08:43:42.377Z,8.41
2018-12-01T08:44:42.607Z,8.55
2018-12-01T08:45:42.364Z,8.63
2018-12-01T08:46:42.115Z,8.64
2018-12-01T08:47:42.104Z,8.69
2018-12-01T08:48:42.585Z,8.69
2018-12-01T08:49:42.330Z,8.84
2018-12-01T08:50:42.066Z,8.76
2018-12-01T08:51:42.578Z,8.94
2018-12-01T08:52:42.593Z,8.85
2018-12-01T08:53:42.548Z,8.89
2018-12-01T08:54:42.547Z,8.95
2018-12-01T08:55:42.292Z,9.04
2018-12-01T08:56:42.617Z,9.1
2018-12-01T08:57:42.518Z,9.19
2018-12-01T08:58:42.367Z,9.19
2018-12-01T08:59:42.282Z,9.31
2018-12-01T09:00:42.266Z,9.32
2018-12-01T09:01:42.513Z,9.29
2018-12-01T09:02:42.536Z,9.37
2018-12-01T09:03:42.239Z,9.43
2018-12-01T09:04:42.480Z,9.46
2018-12-01T09:05:42.498Z,9.41
2018-12-01T09:06:42.469Z,9.39
2018-12-01T09:07:42.241Z,9.41
2018-12-01T09:08:42.238Z,9.4
2018-12-01T09:09:42.464Z,9.54
2018-12-01T09:10:42.214Z,9.47
2018-12-01T09:11:42.454Z,9.43
2018-12-01T09:12:42.207Z,9.36
2018-12-01T09:13:41.938Z,9.43
2018-12-01T09:14:42.430Z,9.36
2018-12-01T09:15:42.437Z,9.43
2018-12-01T09:16:42.419Z,9.46
2018-12-01T09:17:42.408Z,9.59
2018-12-01T09:18:42.417Z,9.62
2018-12-01T09:19:42.169Z,9.64
2018-12-01T09:20:42.420Z,9.68
2018-12-01T09:21:42.392Z,9.68
2018-12-01T09:22:42.388Z,9.74
2018-12-01T09:23:42.143Z,9.79
2018-12-01T09:24:42.367Z,9.76
2018-12-01T09:25:42.357Z,9.84
2018-12-01T09:26:42.363Z,9.8
2018-12-01T09:27:42.351Z,9.91
2018-12-01T09:28:42.347Z,9.84
2018-12-01T09:29:42.366Z,9.73
2018-12-01T09:30:42.332Z,9.73
2018-12-01T09:31:42.333Z,9.73
2018-12-01T09:32:42.337Z,9.72
2018-12-01T09:33:41.834Z,9.79
2018-12-01T09:34:42.067Z,9.76
2018-12-01T09:35:42.174Z,9.77
2018-12-01T09:36:42.057Z,9.87
2018-12-01T09:37:42.053Z,9.73
2018-12-01T09:38:42.054Z,9.8
2018-12-01T09:39:42.054Z,9.73
2018-12-01T09:40:42.039Z,9.69
2018-12-01T09:41:42.040Z,9.72
2018-12-01T09:42:42.035Z,9.68
2018-12-01T09:43:42.280Z,9.68
2018-12-01T09:44:41.799Z,9.68
2018-12-01T09:45:42.258Z,9.72
2018-12-01T09:46:42.251Z,9.69
2018-12-01T09:47:42.268Z,9.72
2018-12-01T09:48:41.993Z,9.69
2018-12-01T09:49:42.242Z,9.76
2018-12-01T09:50:42.010Z,9.72
2018-12-01T09:51:42.226Z,9.8
2018-12-01T09:52:41.986Z,9.83
2018-12-01T09:53:41.971Z,9.83
2018-12-01T09:54:41.979Z,9.87
2018-12-01T09:55:41.963Z,9.95
2018-12-01T09:56:41.955Z,9.97
2018-12-01T09:57:42.215Z,9.99
2018-12-01T09:58:41.948Z,10.05
2018-12-01T09:59:42.190Z,10.05
2018-12-01T10:00:41.953Z,10.23
2018-12-01T10:01:41.937Z,10.17
2018-12-01T10:02:41.946Z,10.1
2018-12-01T10:03:42.181Z,10.07
2018-12-01T10:04:41.926Z,9.99
2018-12-01T10:05:42.196Z,9.98
2018-12-01T10:06:41.713Z,10.02
2018-12-01T10:07:41.923Z,9.84
2018-12-01T10:08:41.658Z,9.89
2018-12-01T10:09:41.946Z,9.95
2018-12-01T10:10:42.153Z,9.87
2018-12-01T10:11:41.903Z,9.89
2018-12-01T10:12:41.891Z,9.92
2018-12-01T10:13:41.886Z,9.98
2018-12-01T10:14:41.646Z,9.98
2018-12-01T10:15:41.902Z,10.07
2018-12-01T10:16:41.881Z,10.16
2018-12-01T10:17:41.864Z,10.2
2018-12-01T10:18:42.097Z,10.19
2018-12-01T10:19:41.600Z,10.33
2018-12-01T10:20:43.294Z,10.31
2018-12-01T10:21:42.129Z,10.42
2018-12-01T10:22:41.832Z,10.34
2018-12-01T10:23:42.082Z,10.51
2018-12-01T10:24:41.828Z,10.53
2018-12-01T10:25:42.079Z,10.61
2018-12-01T10:26:41.592Z,10.75
2018-12-01T10:27:42.080Z,10.71
2018-12-01T10:28:41.810Z,10.67
2018-12-01T10:29:42.054Z,10.72
2018-12-01T10:30:42.047Z,10.72
2018-12-01T10:31:42.056Z,10.75
2018-12-01T10:32:42.267Z,10.75
2018-12-01T10:33:41.543Z,10.72
2018-12-01T10:34:42.090Z,10.74
2018-12-01T10:35:41.563Z,10.71
2018-12-01T10:36:41.923Z,10.74
2018-12-01T10:37:42.027Z,10.75
2018-12-01T10:38:41.762Z,10.76
2018-12-01T10:39:41.756Z,10.76
2018-12-01T10:40:42.007Z,10.78
2018-12-01T10:41:41.515Z,10.84
2018-12-01T10:42:41.744Z,10.89
2018-12-01T10:43:42.057Z,10.96
2018-12-01T10:44:41.753Z,10.94
2018-12-01T10:45:41.485Z,11
2018-12-01T10:46:41.740Z,11.02
2018-12-01T10:47:42.023Z,11.08
2018-12-01T10:48:41.823Z,11.05
2018-12-01T10:49:41.744Z,10.99
2018-12-01T10:50:41.914Z,11
2018-12-01T10:51:41.469Z,10.9
2018-12-01T10:52:41.463Z,10.9
2018-12-01T10:53:41.959Z,10.9
2018-12-01T10:54:42.005Z,10.84
2018-12-01T10:55:41.449Z,10.86
2018-12-01T10:56:41.694Z,10.79
2018-12-01T10:57:41.683Z,10.75
2018-12-01T10:58:41.944Z,10.75
2018-12-01T10:59:41.692Z,10.79
2018-12-01T11:00:41.690Z,10.78
2018-12-01T11:01:41.681Z,10.76
2018-12-01T11:02:41.921Z,10.78
2018-12-01T11:03:41.704Z,10.82
2018-12-01T11:04:41.925Z,10.99
2018-12-01T11:05:41.416Z,10.93
2018-12-01T11:06:41.707Z,11.02
2018-12-01T11:07:42.048Z,11.17
2018-12-01T11:08:41.894Z,11.1
2018-12-01T11:09:41.887Z,11.14
2018-12-01T11:10:41.643Z,11.17
2018-12-01T11:11:41.901Z,11.18
2018-12-01T11:12:41.873Z,11.27
2018-12-01T11:13:41.885Z,11.3
2018-12-01T11:14:42.667Z,11.29
2018-12-01T11:15:41.637Z,11.35
2018-12-01T11:16:41.878Z,11.35
2018-12-01T11:17:41.858Z,11.37
2018-12-01T11:18:41.846Z,11.4
2018-12-01T11:19:41.862Z,11.4
2018-12-01T11:20:41.842Z,11.33
2018-12-01T11:21:41.356Z,11.44
2018-12-01T11:22:41.591Z,11.41
2018-12-01T11:23:41.590Z,11.47
2018-12-01T11:24:42.681Z,11.5
2018-12-01T11:25:41.599Z,11.57
2018-12-01T11:26:41.818Z,11.52
2018-12-01T11:27:41.609Z,11.59
2018-12-01T11:28:41.594Z,11.54
2018-12-01T11:29:41.610Z,11.57
2018-12-01T11:30:42.133Z,11.55
2018-12-01T11:31:42.011Z,11.62
2018-12-01T11:32:41.479Z,11.54
2018-12-01T11:33:41.811Z,11.55
2018-12-01T11:34:41.899Z,11.66
2018-12-01T11:35:41.722Z,11.65
2018-12-01T11:36:41.808Z,11.55
2018-12-01T11:37:41.597Z,11.51
2018-12-01T11:38:41.534Z,11.43
2018-12-01T11:39:41.788Z,11.32
2018-12-01T11:40:41.534Z,11.33
2018-12-01T11:41:41.379Z,11.35
2018-12-01T11:42:42.060Z,11.36
2018-12-01T11:43:41.660Z,11.41
2018-12-01T11:44:41.985Z,11.44
2018-12-01T11:45:41.532Z,11.44
2018-12-01T11:46:42.087Z,11.43
2018-12-01T11:47:41.733Z,11.44
2018-12-01T11:48:41.804Z,11.5
2018-12-01T11:49:41.772Z,11.33
2018-12-01T11:50:41.553Z,11.35
2018-12-01T11:51:41.544Z,11.35
2018-12-01T11:52:41.551Z,11.35
2018-12-01T11:53:41.539Z,11.32
2018-12-01T11:54:41.234Z,11.33
2018-12-01T11:55:41.797Z,11.29
2018-12-01T11:56:41.551Z,11.4
2018-12-01T11:57:41.246Z,11.35
2018-12-01T11:58:41.763Z,11.36
2018-12-01T11:59:41.343Z,11.36
2018-12-01T12:00:41.697Z,11.35
2018-12-01T12:01:41.519Z,11.36
2018-12-01T12:02:41.242Z,11.48
2018-12-01T12:03:41.403Z,11.36
2018-12-01T12:04:41.681Z,11.4
2018-12-01T12:05:41.767Z,11.36
2018-12-01T12:06:41.181Z,11.44
2018-12-01T12:07:41.729Z,11.44
2018-12-01T12:08:41.767Z,11.41
2018-12-01T12:09:41.663Z,11.45
2018-12-01T12:10:41.859Z,11.44
2018-12-01T12:11:41.656Z,11.47
2018-12-01T12:12:41.250Z,11.47
2018-12-01T12:13:41.179Z,11.6
2018-12-01T12:14:41.581Z,11.54
2018-12-01T12:15:41.138Z,11.68
2018-12-01T12:16:41.630Z,11.73
2018-12-01T12:17:41.412Z,11.7
2018-12-01T12:18:41.368Z,11.7
2018-12-01T12:19:41.861Z,11.77
2018-12-01T12:20:41.432Z,11.77
2018-12-01T12:21:41.379Z,11.73
2018-12-01T12:22:41.120Z,11.69
2018-12-01T12:23:41.384Z,11.73
2018-12-01T12:24:42.533Z,11.68
2018-12-01T12:25:42.587Z,11.52
2018-12-01T12:26:41.684Z,11.57
2018-12-01T12:27:41.098Z,11.51
2018-12-01T12:28:41.392Z,11.54
2018-12-01T12:29:41.474Z,11.51
2018-12-01T12:30:41.588Z,11.59
2018-12-01T12:31:41.637Z,11.55
2018-12-01T12:32:41.663Z,11.52
2018-12-01T12:33:41.652Z,11.51
2018-12-01T12:34:42.001Z,11.62
2018-12-01T12:35:41.324Z,11.6
2018-12-01T12:36:41.360Z,11.6
2018-12-01T12:37:41.406Z,11.66
2018-12-01T12:38:41.605Z,11.59
2018-12-01T12:39:41.327Z,11.57
2018-12-01T12:40:41.458Z,11.69
2018-12-01T12:41:41.066Z,11.7
2018-12-01T12:42:41.537Z,11.73
2018-12-01T12:43:41.100Z,11.78
2018-12-01T12:44:41.570Z,11.84
2018-12-01T12:45:41.578Z,11.8
2018-12-01T12:46:41.852Z,11.81
2018-12-01T12:47:41.281Z,11.7
2018-12-01T12:48:41.267Z,11.68
2018-12-01T12:49:41.276Z,11.62
2018-12-01T12:50:41.404Z,11.51
2018-12-01T12:51:41.515Z,11.5
2018-12-01T12:52:41.257Z,11.55
2018-12-01T12:53:41.248Z,11.48
2018-12-01T12:54:41.267Z,11.54
2018-12-01T12:55:41.031Z,11.59
2018-12-01T12:56:41.618Z,11.57
2018-12-01T12:57:40.989Z,11.68
2018-12-01T12:58:41.486Z,11.69
2018-12-01T12:59:41.575Z,11.77
2018-12-01T13:00:41.392Z,11.75
2018-12-01T13:01:41.600Z,11.83
2018-12-01T13:02:41.467Z,11.83
2018-12-01T13:03:41.631Z,11.86
2018-12-01T13:04:41.164Z,11.95
2018-12-01T13:05:41.465Z,11.88
2018-12-01T13:06:40.955Z,11.84
2018-12-01T13:07:41.448Z,12.02
2018-12-01T13:08:41.501Z,12
2018-12-01T13:09:41.195Z,12.07
2018-12-01T13:10:41.186Z,12.12
2018-12-01T13:11:40.947Z,12
2018-12-01T13:12:40.936Z,12
2018-12-01T13:13:41.173Z,12.03
2018-12-01T13:14:41.176Z,12.06
2018-12-01T13:15:41.164Z,12.06